createdAt,value
2023-05-09T05:00:28.261Z,1.36
2023-05-09T05:03:13.674Z,1.46
2023-05-09T05:05:58.956Z,1.41
2023-05-09T05:08:44.111Z,1.26
2023-05-09T05:11:29.564Z,1.48
2023-05-09T05:14:14.899Z,1.58
2023-05-09T05:17:00.340Z,1.55
2023-05-09T05:19:48.006Z,1.57
2023-05-09T05:22:33.091Z,1.73
2023-05-09T05:25:18.464Z,1.64
2023-05-09T05:28:03.929Z,1.83
2023-05-09T05:30:49.161Z,1.50
2023-05-09T05:33:34.324Z,1.81
2023-05-09T05:36:19.656Z,1.95
2023-05-09T05:39:05.025Z,1.80
2023-05-09T05:41:50.148Z,1.65
2023-05-09T05:44:35.329Z,1.94
2023-05-09T05:47:20.699Z,1.83
2023-05-09T05:50:06.446Z,1.90
2023-05-09T05:52:51.861Z,1.74
2023-05-09T05:55:37.080Z,1.83
2023-05-09T05:58:22.314Z,1.71
2023-05-09T06:01:07.836Z,1.82
2023-05-09T06:03:53.025Z,1.78
2023-05-09T06:06:38.246Z,1.91
2023-05-09T06:09:26.693Z,1.89
2023-05-09T06:12:11.900Z,2.15
2023-05-09T06:14:57.225Z,2.18
2023-05-09T06:17:42.527Z,2.30
2023-05-09T06:20:27.962Z,2.32
2023-05-09T06:23:13.284Z,2.11
2023-05-09T06:25:58.858Z,2.41
2023-05-09T06:28:44.198Z,2.39
2023-05-09T06:31:32.068Z,2.88
2023-05-09T06:34:17.056Z,2.46
2023-05-09T06:37:02.406Z,2.78
2023-05-09T06:39:47.570Z,2.58
2023-05-09T06:42:32.848Z,2.48
2023-05-09T06:45:18.260Z,2.26
2023-05-09T06:48:03.480Z,2.76
2023-05-09T06:50:48.762Z,2.82
2023-05-09T06:53:34.208Z,2.78
2023-05-09T06:56:20.135Z,2.71
2023-05-09T06:59:05.690Z,2.31
2023-05-09T07:01:51.211Z,2.65
2023-05-09T07:04:36.502Z,2.38
2023-05-09T07:07:21.841Z,2.65
2023-05-09T07:10:11.343Z,2.94
2023-05-09T07:12:57.439Z,2.28
2023-05-09T07:15:48.497Z,2.48
2023-05-09T07:18:33.904Z,2.36
2023-05-09T07:21:19.520Z,2.14
2023-05-09T07:24:04.762Z,2.32
2023-05-09T07:26:50.116Z,2.35
2023-05-09T07:29:35.221Z,2.17
2023-05-09T07:32:20.644Z,2.15
2023-05-09T07:35:06.065Z,2.24
2023-05-09T07:37:51.411Z,2.51
2023-05-09T07:40:36.967Z,2.33
2023-05-09T07:43:22.166Z,2.11
2023-05-09T07:46:07.699Z,2.12
2023-05-09T07:48:52.857Z,2.05
2023-05-09T07:51:38.261Z,2.21
2023-05-09T07:54:23.618Z,1.97
2023-05-09T07:57:11.951Z,2.09
2023-05-09T15:17:37.131Z,1.73
2023-05-09T15:20:22.555Z,1.77
2023-05-09T15:23:08.067Z,1.84
2023-05-09T15:25:55.568Z,1.70
2023-05-09T15:28:40.631Z,1.83
2023-05-09T15:31:26.890Z,1.52
2023-05-09T15:34:12.301Z,1.73
2023-05-09T15:36:57.803Z,1.66
2023-05-09T15:39:43.242Z,1.75
2023-05-09T15:42:28.603Z,1.78
2023-05-09T15:45:14.234Z,1.80
2023-05-09T15:47:59.600Z,1.87
2023-05-09T15:50:45.201Z,2.06
2023-05-09T15:53:30.320Z,2.35
2023-05-09T15:56:15.630Z,2.34
2023-05-09T15:59:00.910Z,2.20
2023-05-09T16:01:46.346Z,2.41
2023-05-09T16:04:31.626Z,2.32
2023-05-09T16:07:16.726Z,2.48
2023-05-09T16:10:02.318Z,2.43
2023-05-09T16:12:50.647Z,2.83
2023-05-09T16:15:35.589Z,2.65
2023-05-09T16:18:21.024Z,2.65
2023-05-09T16:21:06.382Z,2.59
2023-05-09T16:23:51.660Z,2.51
2023-05-09T16:26:37.043Z,2.68
2023-05-09T16:29:22.195Z,2.80
2023-05-09T16:32:07.554Z,2.86
2023-05-09T16:34:52.756Z,2.81
2023-05-09T16:37:37.989Z,2.94
2023-05-09T16:40:23.367Z,2.65
2023-05-09T16:43:08.373Z,3.02
2023-05-09T16:45:54.065Z,2.81
2023-05-09T16:48:39.314Z,2.73
2023-05-09T16:51:24.695Z,2.75
2023-05-09T16:54:09.917Z,2.62
2023-05-09T16:56:55.251Z,2.69
2023-05-09T16:59:40.639Z,2.65
2023-05-09T17:02:25.881Z,2.55
2023-05-09T17:05:11.303Z,2.33
2023-05-09T17:07:56.627Z,2.53
2023-05-09T17:10:42.292Z,2.62
2023-05-09T17:13:27.519Z,16.86
2023-05-09T17:16:12.878Z,80.92
2023-05-09T17:18:58.190Z,254.26
2023-05-09T17:21:43.594Z,314.01
2023-05-09T17:24:28.971Z,288.99
2023-05-09T17:27:14.265Z,226.30
2023-05-09T17:29:59.591Z,197.69
2023-05-09T17:32:44.958Z,175.60
2023-05-09T17:35:30.303Z,168.37
2023-05-09T17:38:15.828Z,177.64
2023-05-09T17:41:00.876Z,161.89
2023-05-09T17:43:46.234Z,130.74
2023-05-09T17:46:31.711Z,108.92
2023-05-09T17:49:16.932Z,78.34
2023-05-09T17:52:02.195Z,70.11
2023-05-09T17:54:47.490Z,78.62
2023-05-09T17:57:32.881Z,74.37
2023-05-09T18:00:18.111Z,62.16
2023-05-09T18:03:03.616Z,52.74
2023-05-09T18:05:48.837Z,52.67
2023-05-09T18:08:34.199Z,52.63
2023-05-09T18:11:19.629Z,63.58
2023-05-09T18:14:04.934Z,58.00
2023-05-09T18:16:50.238Z,57.93
2023-05-09T18:19:35.249Z,53.30
2023-05-09T18:22:20.633Z,51.00
2023-05-09T18:25:06.003Z,49.56
2023-05-09T18:27:51.324Z,38.11
2023-05-09T18:30:36.825Z,32.76
2023-05-09T18:33:23.163Z,29.20
2023-05-09T18:36:08.219Z,27.72
2023-05-09T18:38:53.450Z,25.34
2023-05-09T18:41:38.838Z,23.26
2023-05-09T18:44:24.494Z,20.52
2023-05-09T18:47:09.780Z,20.23
2023-05-09T18:49:55.018Z,20.29
2023-05-09T18:52:40.897Z,22.78
2023-05-09T18:55:25.858Z,25.17
2023-05-09T18:58:11.044Z,23.49
2023-05-09T19:00:56.257Z,25.75
2023-05-09T19:03:41.582Z,26.48
2023-05-09T19:06:27.078Z,26.89
2023-05-09T19:09:12.659Z,24.27
2023-05-09T19:11:58.061Z,22.91
2023-05-09T19:14:43.288Z,21.30
2023-05-09T19:17:28.799Z,23.27
2023-05-09T19:20:14.471Z,22.44
2023-05-09T19:23:00.024Z,21.89
2023-05-09T19:25:45.462Z,22.51
2023-05-09T19:28:30.845Z,21.78
2023-05-09T19:31:16.400Z,20.03
2023-05-09T19:34:01.550Z,20.49
2023-05-09T19:36:46.887Z,18.99
2023-05-09T19:39:32.373Z,16.95
2023-05-09T19:42:17.511Z,16.58
2023-05-09T19:45:02.723Z,17.20
2023-05-09T19:47:47.911Z,15.88
2023-05-09T19:50:33.360Z,14.73
2023-05-09T19:53:18.779Z,13.07
2023-05-09T19:56:04.164Z,12.75
2023-05-09T19:58:49.513Z,13.40
2023-05-09T20:01:35.040Z,13.97
2023-05-09T20:04:20.566Z,12.15
2023-05-09T20:07:05.956Z,10.74
2023-05-09T20:26:09.046Z,10.69
2023-05-09T22:26:22.510Z,3.61
